createdAt,value
2023-03-17T00:01:54.697Z,-1.49
2023-03-17T00:04:24.684Z,-1.51
2023-03-17T00:06:54.282Z,-1.52
2023-03-17T00:09:22.773Z,-1.54
2023-03-17T00:11:50.733Z,-1.57
2023-03-17T00:14:19.657Z,-1.58
2023-03-17T00:16:52.764Z,-1.58
2023-03-17T00:19:35.198Z,-1.58
2023-03-17T00:22:06.065Z,-1.58
2023-03-17T00:24:34.089Z,-1.59
2023-03-17T00:27:02.314Z,-1.59
2023-03-17T00:29:29.743Z,-1.58
2023-03-17T00:31:57.679Z,-1.58
2023-03-17T00:34:25.148Z,-1.57
2023-03-17T00:36:53.422Z,-1.55
2023-03-17T00:39:20.921Z,-1.53
2023-03-17T00:41:49.072Z,-1.53
2023-03-17T00:44:16.495Z,-1.53
2023-03-17T00:46:44.702Z,-1.52
2023-03-17T00:51:47.232Z,-1.49
2023-03-17T00:54:17.261Z,-1.46
2023-03-17T00:56:46.087Z,-1.42
2023-03-17T00:59:33.279Z,-1.41
2023-03-17T01:02:00.889Z,-1.39
2023-03-17T01:04:28.723Z,-1.37
2023-03-17T01:06:58.432Z,-1.36
2023-03-17T01:09:27.539Z,-1.35
2023-03-17T01:11:55.878Z,-1.33
2023-03-17T01:14:24.590Z,-1.31
2023-03-17T01:16:56.023Z,-1.29
2023-03-17T01:19:23.688Z,-1.27
2023-03-17T01:21:52.196Z,-1.26
2023-03-17T01:24:19.933Z,-1.24
2023-03-17T01:26:47.339Z,-1.22
2023-03-17T01:29:14.958Z,-1.21
2023-03-17T01:31:42.449Z,-1.20
2023-03-17T01:34:11.154Z,-1.19
2023-03-17T01:36:38.653Z,-1.19
2023-03-17T01:39:07.400Z,-1.20
2023-03-17T01:41:36.486Z,-1.21
2023-03-17T01:44:04.687Z,-1.21
2023-03-17T01:46:35.406Z,-1.22
2023-03-17T01:49:19.422Z,-1.22
2023-03-17T01:52:09.129Z,-1.22
2023-03-17T01:54:55.653Z,-1.22
2023-03-17T01:57:37.115Z,-1.23
2023-03-17T02:00:13.800Z,-1.24
2023-03-17T02:02:44.786Z,-1.25
2023-03-17T02:05:17.963Z,-1.24
2023-03-17T02:07:45.762Z,-1.23
2023-03-17T02:10:17.493Z,-1.23
2023-03-17T02:12:48.432Z,-1.22
2023-03-17T02:15:15.952Z,-1.21
2023-03-17T02:17:43.558Z,-1.20
2023-03-17T02:20:17.128Z,-1.18
2023-03-17T02:22:48.803Z,-1.16
2023-03-17T02:25:17.393Z,-1.14
2023-03-17T02:27:48.158Z,-1.11
2023-03-17T02:30:19.455Z,-1.08
2023-03-17T02:32:47.873Z,-1.07
2023-03-17T02:35:16.571Z,-1.05
2023-03-17T02:37:45.986Z,-1.04
2023-03-17T02:40:14.864Z,-1.02
2023-03-17T02:42:42.459Z,-1.00
2023-03-17T02:45:11.582Z,-0.99
2023-03-17T02:47:41.370Z,-0.97
2023-03-17T02:50:17.709Z,-0.96
2023-03-17T02:52:45.337Z,-0.94
2023-03-17T02:55:13.245Z,-0.93
2023-03-17T02:57:41.204Z,-0.92
2023-03-17T03:00:11.911Z,-0.90
2023-03-17T03:02:40.333Z,-0.88
2023-03-17T03:05:08.828Z,-0.87
2023-03-17T03:07:36.514Z,-0.86
2023-03-17T03:10:05.681Z,-0.85
2023-03-17T03:12:33.198Z,-0.83
2023-03-17T03:15:00.736Z,-0.83
2023-03-17T03:17:28.456Z,-0.81
2023-03-17T03:19:56.018Z,-0.80
2023-03-17T03:22:23.528Z,-0.78
2023-03-17T03:24:51.153Z,-0.76
2023-03-17T03:27:19.003Z,-0.75
2023-03-17T03:29:47.270Z,-0.72
2023-03-17T03:32:14.692Z,-0.70
2023-03-17T03:34:42.676Z,-0.67
2023-03-17T03:37:10.497Z,-0.63
2023-03-17T03:39:39.111Z,-0.59
2023-03-17T03:42:06.990Z,-0.56
2023-03-17T03:44:34.538Z,-0.53
2023-03-17T03:47:02.723Z,-0.50
2023-03-17T03:49:30.199Z,-0.45
2023-03-17T03:51:57.684Z,-0.42
2023-03-17T03:54:25.298Z,-0.39
2023-03-17T03:56:52.702Z,-0.35
2023-03-17T03:59:21.081Z,-0.31
2023-03-17T04:01:50.071Z,-0.29
2023-03-17T04:04:17.714Z,-0.25
2023-03-17T04:06:45.386Z,-0.23
2023-03-17T04:09:13.553Z,-0.21
2023-03-17T04:11:43.421Z,-0.19
2023-03-17T04:14:11.001Z,-0.16
2023-03-17T04:16:39.049Z,-0.14
2023-03-17T04:19:07.709Z,-0.12
2023-03-17T04:21:36.779Z,-0.10
2023-03-17T04:24:10.035Z,-0.07
2023-03-17T04:26:37.616Z,-0.04
2023-03-17T04:29:16.150Z,-0.02
2023-03-17T04:31:44.425Z,0.03
2023-03-17T04:34:22.074Z,0.06
2023-03-17T04:36:54.100Z,0.09
2023-03-17T04:39:21.810Z,0.12
2023-03-17T04:41:49.261Z,0.16
2023-03-17T04:44:16.744Z,0.19
2023-03-17T04:46:45.588Z,0.23
2023-03-17T04:49:15.979Z,0.25
2023-03-17T04:51:44.566Z,0.27
2023-03-17T04:54:12.318Z,0.29
2023-03-17T04:56:40.501Z,0.32
2023-03-17T04:59:08.130Z,0.34
2023-03-17T05:01:39.074Z,0.36
2023-03-17T05:04:07.995Z,0.37
2023-03-17T05:06:37.345Z,0.39
2023-03-17T05:09:05.451Z,0.43
2023-03-17T05:11:32.943Z,0.46
2023-03-17T05:14:00.392Z,0.50
2023-03-17T05:16:27.924Z,0.53
2023-03-17T05:18:55.690Z,0.54
2023-03-17T05:21:23.281Z,0.57
2023-03-17T05:23:51.005Z,0.59
2023-03-17T05:26:19.892Z,0.60
2023-03-17T05:28:48.435Z,0.62
2023-03-17T05:31:16.191Z,0.64
2023-03-17T05:33:43.670Z,0.65
2023-03-17T05:36:11.164Z,0.68
2023-03-17T05:38:38.671Z,0.71
2023-03-17T05:41:06.343Z,0.75
2023-03-17T05:43:33.878Z,0.78
2023-03-17T05:46:01.369Z,0.82
2023-03-17T05:48:29.198Z,0.84
2023-03-17T05:50:57.933Z,0.89
2023-03-17T05:53:26.486Z,0.94
2023-03-17T05:55:54.460Z,0.99
2023-03-17T05:58:23.395Z,1.02
2023-03-17T06:00:51.117Z,1.06
2023-03-17T06:03:18.697Z,1.09
2023-03-17T06:05:46.363Z,1.11
2023-03-17T06:08:15.891Z,1.15
2023-03-17T06:10:43.485Z,1.19
2023-03-17T06:13:11.777Z,1.22
2023-03-17T06:15:39.444Z,1.25
2023-03-17T06:18:07.762Z,1.28
2023-03-17T06:20:40.700Z,1.30
2023-03-17T06:23:09.918Z,1.33
2023-03-17T06:25:37.475Z,1.35
2023-03-17T06:28:06.108Z,1.37
2023-03-17T06:30:40.481Z,1.42
2023-03-17T06:33:08.867Z,1.47
2023-03-17T06:35:38.975Z,1.52
2023-03-17T06:38:07.133Z,1.58
2023-03-17T06:40:49.197Z,1.61
2023-03-17T06:43:27.946Z,1.64
2023-03-17T06:45:55.632Z,1.66
2023-03-17T06:48:23.712Z,1.69
2023-03-17T06:50:53.524Z,1.73
2023-03-17T06:53:21.731Z,1.77
2023-03-17T06:55:54.722Z,1.81
2023-03-17T06:58:22.849Z,1.86
2023-03-17T07:00:55.037Z,1.92
2023-03-17T07:03:26.506Z,1.99
2023-03-17T07:05:54.796Z,2.06
2023-03-17T07:08:25.878Z,2.12
2023-03-17T07:10:57.887Z,2.17
2023-03-17T07:13:25.830Z,2.23
2023-03-17T07:15:55.441Z,2.27
2023-03-17T07:18:23.561Z,2.35
2023-03-17T07:20:51.015Z,2.44
2023-03-17T07:23:22.985Z,2.52
2023-03-17T07:25:53.033Z,2.59
2023-03-17T07:28:21.728Z,2.68
2023-03-17T07:30:50.900Z,2.75
2023-03-17T07:33:21.222Z,2.82
2023-03-17T07:35:49.865Z,2.87
2023-03-17T07:38:19.243Z,2.92
2023-03-17T07:40:48.905Z,2.98
2023-03-17T07:43:17.713Z,3.06
2023-03-17T07:45:46.916Z,3.15
2023-03-17T07:48:14.790Z,3.22
2023-03-17T07:50:43.030Z,3.30
2023-03-17T07:53:11.288Z,3.38
2023-03-17T07:55:38.894Z,3.49
2023-03-17T07:58:13.115Z,3.58
2023-03-17T08:00:44.534Z,3.67
2023-03-17T08:03:12.474Z,3.77
2023-03-17T08:05:41.043Z,3.91
2023-03-17T08:08:10.506Z,4.07
2023-03-17T08:10:38.051Z,4.24
2023-03-17T08:13:05.588Z,4.40
2023-03-17T08:15:33.180Z,4.51
2023-03-17T08:18:01.114Z,4.64
2023-03-17T08:20:30.179Z,4.80
2023-03-17T08:22:58.113Z,4.93
2023-03-17T08:25:25.868Z,5.06
2023-03-17T08:27:53.986Z,5.19
2023-03-17T08:30:21.704Z,5.32
2023-03-17T08:32:49.281Z,5.42
2023-03-17T08:35:18.532Z,5.52
2023-03-17T08:37:47.434Z,5.63
2023-03-17T08:40:17.722Z,5.70
2023-03-17T08:42:46.662Z,5.72
2023-03-17T08:45:18.330Z,5.75
2023-03-17T08:47:47.722Z,5.81
2023-03-17T08:50:19.222Z,6.05
2023-03-17T08:52:49.582Z,6.35
2023-03-17T08:55:24.802Z,6.68
2023-03-17T08:57:58.656Z,6.96
2023-03-17T09:00:26.634Z,7.05
2023-03-17T09:02:55.442Z,7.11
2023-03-17T09:05:27.316Z,7.25
2023-03-17T09:08:02.921Z,7.48
2023-03-17T09:10:31.470Z,7.65
2023-03-17T09:13:03.829Z,7.81
2023-03-17T09:15:34.317Z,7.99
2023-03-17T09:18:03.147Z,8.17
2023-03-17T09:20:35.138Z,8.24
2023-03-17T09:23:07.908Z,8.21
2023-03-17T09:25:41.660Z,8.20
2023-03-17T09:28:12.836Z,8.13
2023-03-17T09:30:42.772Z,8.03
2023-03-17T09:33:12.922Z,7.98
2023-03-17T09:35:41.476Z,7.95
2023-03-17T09:38:10.374Z,7.85
2023-03-17T09:41:10.953Z,7.76
2023-03-17T09:44:05.561Z,7.80
2023-03-17T09:46:54.795Z,7.79
2023-03-17T09:49:28.186Z,7.76
2023-03-17T09:51:56.067Z,7.81
2023-03-17T09:54:34.812Z,7.82
2023-03-17T09:57:20.048Z,7.83
2023-03-17T10:00:08.433Z,7.82
2023-03-17T10:02:45.322Z,7.85
2023-03-17T10:05:14.909Z,7.93
2023-03-17T10:08:01.643Z,8.00
2023-03-17T10:10:48.320Z,8.00
2023-03-17T10:13:27.459Z,7.99
2023-03-17T10:16:18.687Z,8.01
2023-03-17T10:19:18.435Z,7.99
2023-03-17T10:21:58.915Z,7.98
2023-03-17T10:24:29.798Z,7.95
2023-03-17T10:27:00.820Z,8.01
2023-03-17T10:29:29.228Z,8.11
2023-03-17T10:31:58.676Z,8.38
2023-03-17T10:34:37.361Z,8.78
2023-03-17T10:37:09.352Z,9.13
2023-03-17T10:39:56.185Z,9.44
2023-03-17T10:42:33.470Z,9.75
2023-03-17T10:45:33.200Z,10.04
2023-03-17T10:48:04.325Z,10.24
2023-03-17T10:50:39.714Z,10.51
2023-03-17T10:53:18.317Z,10.88
2023-03-17T10:55:54.380Z,11.23
2023-03-17T10:58:45.352Z,11.47
2023-03-17T11:01:33.369Z,11.42
2023-03-17T11:04:02.908Z,11.30
2023-03-17T11:06:41.949Z,11.32
2023-03-17T11:09:16.721Z,11.38
2023-03-17T11:11:48.995Z,11.44
2023-03-17T11:14:27.259Z,11.55
2023-03-17T11:16:56.662Z,11.83
2023-03-17T11:19:41.988Z,11.96
2023-03-17T11:22:15.984Z,12.00
2023-03-17T11:24:49.557Z,12.30
2023-03-17T11:27:30.437Z,12.63
2023-03-17T11:30:34.705Z,12.71
2023-03-17T11:33:33.827Z,12.72
2023-03-17T11:36:27.060Z,12.54
2023-03-17T11:39:05.672Z,12.39
2023-03-17T11:41:44.787Z,12.37
2023-03-17T11:44:36.327Z,12.37
2023-03-17T11:47:36.593Z,12.48
2023-03-17T11:50:20.062Z,12.72
2023-03-17T11:52:57.990Z,12.71
2023-03-17T11:55:41.099Z,12.72
2023-03-17T11:58:17.981Z,12.67
2023-03-17T12:00:52.460Z,12.63
2023-03-17T12:03:33.174Z,12.62
2023-03-17T12:06:08.472Z,12.73
2023-03-17T12:08:45.823Z,12.71
2023-03-17T12:11:19.377Z,12.73
2023-03-17T12:13:54.049Z,12.64
2023-03-17T12:16:43.402Z,12.60
2023-03-17T12:19:19.389Z,12.51
2023-03-17T12:21:53.035Z,12.46
2023-03-17T12:24:30.518Z,12.54
2023-03-17T12:27:05.932Z,12.77
2023-03-17T12:29:49.698Z,13.05
2023-03-17T12:32:38.585Z,13.32
2023-03-17T12:35:29.257Z,13.79
2023-03-17T12:38:03.882Z,14.34
2023-03-17T12:40:43.435Z,14.78
2023-03-17T12:43:38.470Z,15.10
2023-03-17T12:46:24.674Z,15.59
2023-03-17T12:49:11.161Z,16.18
2023-03-17T12:51:59.113Z,16.78
2023-03-17T12:54:30.961Z,17.16
2023-03-17T12:57:06.569Z,17.39
2023-03-17T12:59:36.788Z,17.50
2023-03-17T13:02:21.397Z,17.72
2023-03-17T13:04:58.182Z,17.72
2023-03-17T13:07:37.840Z,17.72
2023-03-17T13:10:41.961Z,17.91
2023-03-17T13:13:18.477Z,18.25
2023-03-17T13:15:57.322Z,18.44
2023-03-17T13:18:49.312Z,18.68
2023-03-17T13:21:20.632Z,18.93
2023-03-17T13:24:15.633Z,19.18
2023-03-17T13:27:02.066Z,19.34
2023-03-17T13:29:40.857Z,19.51
2023-03-17T13:32:27.720Z,19.66
2023-03-17T13:35:00.127Z,19.78
2023-03-17T13:37:35.700Z,19.83
2023-03-17T13:40:22.702Z,19.73
2023-03-17T13:43:02.067Z,19.55
2023-03-17T13:45:41.410Z,19.47
2023-03-17T13:48:27.473Z,19.51
2023-03-17T13:51:12.672Z,19.87
2023-03-17T13:54:14.903Z,20.06
2023-03-17T13:56:44.317Z,20.00
2023-03-17T13:59:20.511Z,20.09
2023-03-17T14:02:02.177Z,20.27
2023-03-17T14:04:44.666Z,20.31
2023-03-17T14:07:19.394Z,20.27
2023-03-17T14:09:46.837Z,20.21
2023-03-17T14:12:46.449Z,20.14
2023-03-17T14:15:36.074Z,20.06
2023-03-17T14:18:15.365Z,20.18
2023-03-17T14:21:01.345Z,20.59
2023-03-17T14:23:29.949Z,21.01
2023-03-17T14:25:58.788Z,21.21
2023-03-17T14:28:29.754Z,21.22
2023-03-17T14:31:04.308Z,21.18
2023-03-17T14:33:37.790Z,21.34
2023-03-17T14:36:09.354Z,21.46
2023-03-17T14:38:39.150Z,21.46
2023-03-17T14:41:22.641Z,21.61
2023-03-17T14:43:52.383Z,21.73
2023-03-17T14:46:24.646Z,21.86
2023-03-17T14:49:04.556Z,22.03
2023-03-17T14:51:37.794Z,22.05
2023-03-17T14:54:13.951Z,22.02
2023-03-17T14:56:48.230Z,21.70
2023-03-17T14:59:29.770Z,21.13
2023-03-17T15:02:05.297Z,20.24
2023-03-17T15:04:34.202Z,19.22
2023-03-17T15:07:09.022Z,18.46
2023-03-17T15:09:40.169Z,17.89
2023-03-17T15:12:26.186Z,17.47
2023-03-17T15:15:02.916Z,16.82
2023-03-17T15:17:36.717Z,16.21
2023-03-17T15:20:12.689Z,15.83
2023-03-17T15:22:48.342Z,15.46
2023-03-17T15:25:20.730Z,15.12
2023-03-17T15:27:48.301Z,14.82
2023-03-17T15:30:17.320Z,14.44
2023-03-17T15:33:01.321Z,14.09
2023-03-17T15:35:31.484Z,13.71
2023-03-17T15:37:59.039Z,13.34
2023-03-17T15:40:26.794Z,13.04
2023-03-17T15:42:54.345Z,12.73
2023-03-17T15:45:21.964Z,12.55
2023-03-17T15:47:49.441Z,12.41
2023-03-17T15:50:33.529Z,12.32
2023-03-17T15:53:01.435Z,12.23
2023-03-17T15:55:30.707Z,12.19
2023-03-17T15:57:59.614Z,12.21
2023-03-17T16:00:30.041Z,12.20
2023-03-17T16:03:04.161Z,12.08
2023-03-17T16:05:34.479Z,11.98
2023-03-17T16:08:02.324Z,11.89
2023-03-17T16:10:32.926Z,11.78
2023-03-17T16:13:00.870Z,11.62
2023-03-17T16:15:32.265Z,11.44
2023-03-17T16:18:04.195Z,11.25
2023-03-17T16:20:39.696Z,11.06
2023-03-17T16:23:27.166Z,10.83
2023-03-17T16:25:59.322Z,10.59
2023-03-17T16:28:33.566Z,10.35
2023-03-17T16:31:04.466Z,10.15
2023-03-17T16:33:40.929Z,9.93
2023-03-17T16:36:15.962Z,9.71
2023-03-17T16:38:46.408Z,9.52
2023-03-17T16:41:27.881Z,9.33
2023-03-17T16:44:01.384Z,9.13
2023-03-17T16:46:35.031Z,8.92
2023-03-17T16:49:04.337Z,8.74
2023-03-17T16:51:31.824Z,8.56
2023-03-17T16:53:59.293Z,8.41
2023-03-17T16:56:27.562Z,8.26
2023-03-17T16:58:55.336Z,8.11
2023-03-17T17:01:28.292Z,8.01
2023-03-17T17:03:56.392Z,7.90
2023-03-17T17:06:24.937Z,7.78
2023-03-17T17:08:53.020Z,7.67
2023-03-17T17:11:21.317Z,7.58
2023-03-17T17:13:49.226Z,7.48
2023-03-17T17:16:29.255Z,7.38
2023-03-17T17:18:57.903Z,7.30
2023-03-17T17:21:26.496Z,7.21
2023-03-17T17:23:55.850Z,7.12
2023-03-17T17:26:23.405Z,7.04
2023-03-17T17:28:50.968Z,6.96
2023-03-17T17:31:18.792Z,6.90
2023-03-17T17:33:46.468Z,6.84
2023-03-17T17:36:16.681Z,6.79
2023-03-17T17:38:44.928Z,6.74
2023-03-17T17:41:14.094Z,6.67
2023-03-17T17:43:42.026Z,6.60
2023-03-17T17:46:18.925Z,6.54
2023-03-17T17:48:48.838Z,6.51
2023-03-17T17:51:17.092Z,6.48
2023-03-17T17:53:45.128Z,6.44
2023-03-17T17:56:18.262Z,6.42
2023-03-17T17:58:46.812Z,6.40
2023-03-17T18:01:19.873Z,6.37
2023-03-17T18:03:49.348Z,6.34
2023-03-17T18:06:17.924Z,6.30
2023-03-17T18:08:45.969Z,6.28
2023-03-17T18:11:14.667Z,6.24
2023-03-17T18:13:42.240Z,6.21
2023-03-17T18:16:18.363Z,6.19
2023-03-17T18:18:47.334Z,6.18
2023-03-17T18:21:15.400Z,6.16
2023-03-17T18:23:47.245Z,6.13
2023-03-17T18:26:18.058Z,6.10
2023-03-17T18:28:48.556Z,6.07
2023-03-17T18:31:29.411Z,6.05
2023-03-17T18:34:03.707Z,6.02
2023-03-17T18:36:34.614Z,6.00
2023-03-17T18:39:02.459Z,5.98
2023-03-17T18:41:32.898Z,5.95
2023-03-17T18:44:00.621Z,5.92
2023-03-17T18:46:28.392Z,5.89
2023-03-17T18:48:56.007Z,5.87
2023-03-17T18:51:23.579Z,5.85
2023-03-17T18:53:51.149Z,5.82
2023-03-17T18:56:18.691Z,5.79
2023-03-17T18:58:46.260Z,5.76
2023-03-17T19:01:15.801Z,5.73
2023-03-17T19:03:43.254Z,5.69
2023-03-17T19:06:14.035Z,5.67
2023-03-17T19:08:43.217Z,5.66
2023-03-17T19:11:13.844Z,5.64
2023-03-17T19:13:42.134Z,5.62
2023-03-17T19:16:10.559Z,5.60
2023-03-17T19:18:41.922Z,5.58
2023-03-17T19:21:11.260Z,5.57
2023-03-17T19:23:41.296Z,5.54
2023-03-17T19:26:08.872Z,5.53
2023-03-17T19:28:36.406Z,5.50
2023-03-17T19:31:04.061Z,5.47
2023-03-17T19:33:32.665Z,5.45
2023-03-17T19:36:07.446Z,5.43
2023-03-17T19:38:36.461Z,5.42
2023-03-17T19:41:04.952Z,5.39
2023-03-17T19:43:40.262Z,5.38
2023-03-17T19:46:10.911Z,5.37
2023-03-17T19:48:38.942Z,5.35
2023-03-17T19:51:06.703Z,5.36
2023-03-17T19:53:40.554Z,5.36
2023-03-17T19:56:11.568Z,5.36
2023-03-17T19:58:39.258Z,5.35
2023-03-17T20:01:07.395Z,5.35
2023-03-17T20:03:37.796Z,5.35
2023-03-17T20:06:06.373Z,5.34
2023-03-17T20:08:35.338Z,5.33
2023-03-17T20:11:04.864Z,5.30
2023-03-17T20:13:34.352Z,5.30
2023-03-17T20:16:03.671Z,5.29
2023-03-17T20:18:31.603Z,5.28
2023-03-17T20:21:00.472Z,5.26
2023-03-17T20:23:27.911Z,5.24
2023-03-17T20:25:55.332Z,5.22
2023-03-17T20:28:22.943Z,5.19
2023-03-17T20:30:53.944Z,5.17
2023-03-17T20:33:21.654Z,5.14
2023-03-17T20:35:49.146Z,5.12
2023-03-17T20:38:17.324Z,5.08
2023-03-17T20:40:44.889Z,5.06
2023-03-17T20:43:12.825Z,5.03
2023-03-17T20:45:40.494Z,5.00
2023-03-17T20:48:10.529Z,4.98
2023-03-17T20:50:38.887Z,4.96
2023-03-17T20:53:07.485Z,4.95
2023-03-17T20:55:36.279Z,4.94
2023-03-17T20:58:03.871Z,4.93
2023-03-17T21:00:33.339Z,4.91
2023-03-17T21:03:01.945Z,4.90
2023-03-17T21:05:29.479Z,4.89
2023-03-17T21:07:57.619Z,4.88
2023-03-17T21:10:25.308Z,4.87
2023-03-17T21:12:52.880Z,4.86
2023-03-17T21:15:24.104Z,4.85
2023-03-17T21:17:52.199Z,4.83
2023-03-17T21:20:21.093Z,4.83
2023-03-17T21:22:49.764Z,4.81
2023-03-17T21:25:19.201Z,4.82
2023-03-17T21:27:46.665Z,4.83
2023-03-17T21:30:15.772Z,4.83
2023-03-17T21:32:43.303Z,4.82
2023-03-17T21:35:10.846Z,4.81
2023-03-17T21:37:38.385Z,4.80
2023-03-17T21:40:06.886Z,4.78
2023-03-17T21:42:34.670Z,4.76
2023-03-17T21:45:02.463Z,4.75
2023-03-17T21:47:30.191Z,4.75
2023-03-17T21:49:57.987Z,4.74
2023-03-17T21:52:26.013Z,4.74
2023-03-17T21:54:53.533Z,4.73
2023-03-17T21:57:22.776Z,4.72
2023-03-17T21:59:50.234Z,4.70
2023-03-17T22:02:17.786Z,4.70
2023-03-17T22:04:46.893Z,4.68
2023-03-17T22:07:16.743Z,4.67
2023-03-17T22:09:45.226Z,4.66
2023-03-17T22:12:15.548Z,4.64
2023-03-17T22:14:43.139Z,4.62
2023-03-17T22:17:10.730Z,4.62
2023-03-17T22:19:40.117Z,4.60
2023-03-17T22:22:08.317Z,4.59
2023-03-17T22:24:37.694Z,4.58
2023-03-17T22:27:05.819Z,4.56
2023-03-17T22:29:33.306Z,4.55
2023-03-17T22:32:02.218Z,4.53
2023-03-17T22:34:29.862Z,4.52
2023-03-17T22:36:57.373Z,4.51
2023-03-17T22:39:25.433Z,4.50
2023-03-17T22:41:52.971Z,4.50
2023-03-17T22:44:20.627Z,4.48
2023-03-17T22:46:48.244Z,4.47
2023-03-17T22:49:16.267Z,4.46
2023-03-17T22:51:43.840Z,4.44
2023-03-17T22:54:12.140Z,4.43
2023-03-17T22:56:39.663Z,4.43
2023-03-17T22:59:07.243Z,4.40
2023-03-17T23:01:38.652Z,4.38
2023-03-17T23:04:08.903Z,4.37
2023-03-17T23:06:36.550Z,4.36
2023-03-17T23:09:05.464Z,4.35
2023-03-17T23:11:32.997Z,4.34
2023-03-17T23:14:00.581Z,4.32
2023-03-17T23:16:28.226Z,4.30
2023-03-17T23:18:56.101Z,4.27
2023-03-17T23:21:30.835Z,4.24
2023-03-17T23:23:58.720Z,4.23
2023-03-17T23:26:28.176Z,4.21
2023-03-17T23:28:55.813Z,4.21
2023-03-17T23:31:23.904Z,4.20
2023-03-17T23:33:51.520Z,4.19
2023-03-17T23:36:19.317Z,4.18
2023-03-17T23:38:48.591Z,4.18
2023-03-17T23:41:17.377Z,4.16
2023-03-17T23:43:46.913Z,4.14
2023-03-17T23:46:15.197Z,4.12
2023-03-17T23:48:43.204Z,4.11
2023-03-17T23:51:12.624Z,4.09
2023-03-17T23:53:41.802Z,4.07
2023-03-17T23:56:11.280Z,4.05
2023-03-17T23:58:43.780Z,4.04
